createdAt,value
2022-12-28T00:02:14.357Z,1.86
2022-12-28T00:04:42.175Z,1.83
2022-12-28T00:07:10.098Z,1.81
2022-12-28T00:09:38.024Z,1.79
2022-12-28T00:12:06.224Z,1.81
2022-12-28T00:14:35.101Z,1.77
2022-12-28T00:17:02.962Z,1.80
2022-12-28T00:19:30.832Z,1.79
2022-12-28T00:21:59.111Z,1.75
2022-12-28T00:24:27.007Z,1.74
2022-12-28T00:26:57.002Z,1.74
2022-12-28T00:29:24.990Z,1.70
2022-12-28T00:31:53.002Z,1.70
2022-12-28T00:34:24.693Z,1.65
2022-12-28T00:37:09.179Z,1.64
2022-12-28T00:39:41.195Z,1.59
2022-12-28T00:42:09.134Z,1.58
2022-12-28T00:44:38.870Z,1.53
2022-12-28T00:47:06.740Z,1.50
2022-12-28T00:49:34.581Z,1.48
2022-12-28T00:52:02.356Z,1.42
2022-12-28T00:54:30.212Z,1.38
2022-12-28T00:56:58.056Z,1.31
2022-12-28T00:59:25.869Z,1.25
2022-12-28T01:01:54.018Z,1.16
2022-12-28T01:04:22.926Z,1.12
2022-12-28T01:06:50.744Z,1.04
2022-12-28T01:09:18.536Z,0.93
2022-12-28T01:11:46.367Z,0.94
2022-12-28T01:14:15.614Z,0.87
2022-12-28T01:16:43.472Z,0.80
2022-12-28T01:19:13.681Z,0.74
2022-12-28T01:21:42.536Z,0.68
2022-12-28T01:24:10.621Z,0.60
2022-12-28T01:26:38.510Z,0.54
2022-12-28T01:29:06.454Z,0.50
2022-12-28T01:31:34.393Z,0.40
2022-12-28T01:34:03.108Z,0.35
2022-12-28T01:36:32.464Z,0.32
2022-12-28T01:39:02.886Z,0.28
2022-12-28T01:41:33.536Z,0.24
2022-12-28T01:44:03.024Z,0.20
2022-12-28T01:46:40.072Z,0.15
2022-12-28T01:49:14.790Z,0.09
2022-12-28T01:52:18.211Z,0.05
2022-12-28T01:54:48.910Z,-0.03
2022-12-28T01:57:17.772Z,-0.07
2022-12-28T01:59:48.442Z,-0.14
2022-12-28T02:02:16.854Z,-0.20
2022-12-28T02:04:47.003Z,-0.26
2022-12-28T02:07:18.331Z,-0.31
2022-12-28T02:10:43.091Z,-0.38
2022-12-28T02:12:35.424Z,-0.44
2022-12-28T02:15:07.578Z,-0.51
2022-12-28T02:17:35.764Z,-0.57
2022-12-28T02:20:06.391Z,-0.60
2022-12-28T02:22:34.197Z,-0.64
2022-12-28T02:25:22.709Z,-0.65
2022-12-28T02:28:05.061Z,-0.67
2022-12-28T02:30:35.782Z,-0.72
2022-12-28T02:33:16.155Z,-0.77
2022-12-28T02:35:56.630Z,-0.80
2022-12-28T02:38:45.653Z,-0.86
2022-12-28T02:41:19.736Z,-0.92
2022-12-28T02:43:48.003Z,-0.93
2022-12-28T02:46:42.842Z,-0.96
2022-12-28T02:49:48.713Z,-1.02
2022-12-28T02:52:16.478Z,-1.06
2022-12-28T02:55:21.196Z,-1.11
2022-12-28T02:57:54.937Z,-1.15
2022-12-28T03:00:26.176Z,-1.17
2022-12-28T03:03:06.989Z,-1.21
2022-12-28T03:06:19.319Z,-1.26
2022-12-28T03:09:12.089Z,-1.29
2022-12-28T03:11:44.102Z,-1.31
2022-12-28T03:14:18.687Z,-1.35
2022-12-28T03:17:07.657Z,-1.38
2022-12-28T03:20:05.957Z,-1.40
2022-12-28T03:22:54.026Z,-1.43
2022-12-28T03:25:42.213Z,-1.49
2022-12-28T03:28:32.134Z,-1.53
2022-12-28T03:31:09.182Z,-1.57
2022-12-28T03:33:43.681Z,-1.60
2022-12-28T03:36:28.581Z,-1.61
2022-12-28T03:39:11.345Z,-1.63
2022-12-28T03:41:44.184Z,-1.64
2022-12-28T03:44:28.471Z,-1.64
2022-12-28T03:47:01.199Z,-1.64
2022-12-28T03:49:29.788Z,-1.64
2022-12-28T03:51:58.759Z,-1.64
2022-12-28T03:54:26.630Z,-1.66
2022-12-28T03:56:54.513Z,-1.67
2022-12-28T03:59:24.992Z,-1.71
2022-12-28T04:01:53.374Z,-1.73
2022-12-28T04:04:21.366Z,-1.74
2022-12-28T04:06:50.178Z,-1.76
2022-12-28T04:09:18.028Z,-1.77
2022-12-28T04:11:45.941Z,-1.83
2022-12-28T04:14:20.460Z,-1.85
2022-12-28T04:16:48.356Z,-1.87
2022-12-28T04:19:17.295Z,-1.91
2022-12-28T04:21:45.476Z,-1.96
2022-12-28T04:24:13.305Z,-2.00
2022-12-28T04:26:41.643Z,-2.03
2022-12-28T04:29:09.810Z,-2.07
2022-12-28T04:31:57.705Z,-2.10
2022-12-28T04:34:26.368Z,-2.13
2022-12-28T04:36:58.502Z,-2.15
2022-12-28T04:39:26.750Z,-2.19
2022-12-28T04:41:54.548Z,-2.19
2022-12-28T04:44:22.495Z,-2.22
2022-12-28T04:46:50.366Z,-2.24
2022-12-28T04:49:18.263Z,-2.27
2022-12-28T04:51:47.015Z,-2.27
2022-12-28T04:54:14.878Z,-2.29
2022-12-28T04:56:42.714Z,-2.31
2022-12-28T04:59:10.533Z,-2.33
2022-12-28T05:01:38.539Z,-2.35
2022-12-28T05:04:06.576Z,-2.35
2022-12-28T05:06:34.974Z,-2.37
2022-12-28T05:09:04.058Z,-2.35
2022-12-28T05:11:32.079Z,-2.37
2022-12-28T05:13:59.944Z,-2.39
2022-12-28T05:16:28.771Z,-2.41
2022-12-28T05:18:57.537Z,-2.43
2022-12-28T05:21:26.368Z,-2.47
2022-12-28T05:23:55.016Z,-2.48
2022-12-28T05:26:24.911Z,-2.49
2022-12-28T05:28:53.346Z,-2.50
2022-12-28T05:31:22.435Z,-2.52
2022-12-28T05:33:50.614Z,-2.55
2022-12-28T05:36:19.657Z,-2.58
2022-12-28T05:38:47.565Z,-2.60
2022-12-28T05:41:15.439Z,-2.62
2022-12-28T05:43:44.169Z,-2.64
2022-12-28T05:46:14.363Z,-2.66
2022-12-28T05:48:42.960Z,-2.67
2022-12-28T05:51:13.048Z,-2.70
2022-12-28T05:53:41.651Z,-2.73
2022-12-28T05:56:29.349Z,-2.73
2022-12-28T05:59:01.267Z,-2.75
2022-12-28T06:01:30.654Z,-2.77
2022-12-28T06:04:02.968Z,-2.77
2022-12-28T06:06:31.404Z,-2.77
2022-12-28T06:08:59.814Z,-2.78
2022-12-28T06:11:28.780Z,-2.79
2022-12-28T06:13:57.919Z,-2.78
2022-12-28T06:16:29.892Z,-2.77
2022-12-28T06:18:57.934Z,-2.76
2022-12-28T06:21:27.504Z,-2.75
2022-12-28T06:23:57.847Z,-2.77
2022-12-28T06:26:27.686Z,-2.79
2022-12-28T06:28:55.683Z,-2.80
2022-12-28T06:31:24.778Z,-2.81
2022-12-28T06:33:54.461Z,-2.84
2022-12-28T06:36:23.670Z,-2.85
2022-12-28T06:38:52.281Z,-2.86
2022-12-28T06:41:21.195Z,-2.86
2022-12-28T06:43:49.495Z,-2.87
2022-12-28T06:46:18.433Z,-2.84
2022-12-28T06:48:46.752Z,-2.82
2022-12-28T06:51:18.901Z,-2.80
2022-12-28T06:53:48.105Z,-2.79
2022-12-28T06:56:18.984Z,-2.77
2022-12-28T06:58:47.440Z,-2.75
2022-12-28T07:01:17.249Z,-2.71
2022-12-28T07:03:47.073Z,-2.68
2022-12-28T07:06:16.593Z,-2.66
2022-12-28T07:08:44.562Z,-2.64
2022-12-28T07:11:13.757Z,-2.63
2022-12-28T07:13:41.915Z,-2.61
2022-12-28T07:16:13.858Z,-2.58
2022-12-28T07:18:42.229Z,-2.51
2022-12-28T07:21:14.561Z,-2.47
2022-12-28T07:23:42.427Z,-2.43
2022-12-28T07:26:11.808Z,-2.39
2022-12-28T07:28:40.404Z,-2.37
2022-12-28T07:31:09.855Z,-2.35
2022-12-28T07:33:38.000Z,-2.31
2022-12-28T07:36:08.370Z,-2.29
2022-12-28T07:38:36.677Z,-2.26
2022-12-28T07:41:07.325Z,-2.22
2022-12-28T07:43:36.000Z,-2.21
2022-12-28T07:46:05.131Z,-2.18
2022-12-28T07:48:33.837Z,-2.16
2022-12-28T07:51:15.524Z,-2.13
2022-12-28T07:53:44.674Z,-2.07
2022-12-28T07:56:12.886Z,-2.05
2022-12-28T08:01:11.972Z,-1.98
2022-12-28T08:03:41.381Z,-1.91
2022-12-28T08:06:09.278Z,-1.84
2022-12-28T08:08:38.260Z,-1.76
2022-12-28T08:11:07.030Z,-1.69
2022-12-28T08:13:36.211Z,-1.63
2022-12-28T08:16:04.735Z,-1.57
2022-12-28T08:18:32.749Z,-1.51
2022-12-28T08:21:05.057Z,-1.46
2022-12-28T08:23:33.134Z,-1.42
2022-12-28T08:26:07.556Z,-1.37
2022-12-28T08:28:37.444Z,-1.28
2022-12-28T08:31:09.362Z,-1.20
2022-12-28T08:33:37.701Z,-1.15
2022-12-28T08:36:06.615Z,-1.10
2022-12-28T08:38:35.011Z,-1.03
2022-12-28T08:41:04.734Z,-1.00
2022-12-28T08:43:33.212Z,-0.96
2022-12-28T08:46:05.653Z,-0.90
2022-12-28T08:48:34.301Z,-0.89
2022-12-28T08:51:06.491Z,-0.84
2022-12-28T08:53:35.586Z,-0.77
2022-12-28T08:56:10.428Z,-0.70
2022-12-28T08:58:39.194Z,-0.67
2022-12-28T09:01:15.022Z,-0.62
2022-12-28T09:03:44.691Z,-0.54
2022-12-28T09:06:14.152Z,-0.46
2022-12-28T09:08:42.781Z,-0.43
2022-12-28T09:11:16.069Z,-0.42
2022-12-28T09:13:46.461Z,-0.41
2022-12-28T09:16:15.659Z,-0.35
2022-12-28T09:18:44.385Z,-0.27
2022-12-28T09:21:13.762Z,-0.21
2022-12-28T09:23:42.849Z,-0.13
2022-12-28T09:26:14.050Z,-0.08
2022-12-28T09:28:46.459Z,0.01
2022-12-28T09:31:14.638Z,0.09
2022-12-28T09:34:34.987Z,0.17
2022-12-28T09:36:53.245Z,0.26
2022-12-28T09:39:25.340Z,0.33
2022-12-28T09:41:58.849Z,0.39
2022-12-28T09:44:29.711Z,0.47
2022-12-28T09:47:03.833Z,0.50
2022-12-28T09:49:47.079Z,0.51
2022-12-28T09:52:25.067Z,0.59
2022-12-28T09:54:53.171Z,0.65
2022-12-28T09:57:21.382Z,0.70
2022-12-28T09:59:52.363Z,0.74
2022-12-28T10:02:25.115Z,0.81
2022-12-28T10:04:53.432Z,0.89
2022-12-28T10:07:21.857Z,0.95
2022-12-28T10:09:50.048Z,1.01
2022-12-28T10:12:21.030Z,1.09
2022-12-28T10:14:49.680Z,1.15
2022-12-28T10:17:19.967Z,1.22
2022-12-28T10:19:48.881Z,1.29
2022-12-28T10:22:18.972Z,1.34
2022-12-28T10:24:47.645Z,1.42
2022-12-28T10:27:25.784Z,1.50
2022-12-28T10:29:59.862Z,1.58
2022-12-28T10:32:38.401Z,1.61
2022-12-28T10:35:21.761Z,1.60
2022-12-28T10:37:49.720Z,1.65
2022-12-28T10:40:25.663Z,1.69
2022-12-28T10:42:57.696Z,1.75
2022-12-28T10:45:33.807Z,1.80
2022-12-28T10:48:03.046Z,1.85
2022-12-28T10:50:46.927Z,1.90
2022-12-28T10:53:38.448Z,1.95
2022-12-28T10:56:07.364Z,1.99
2022-12-28T10:58:35.453Z,2.05
2022-12-28T11:01:17.728Z,2.10
2022-12-28T11:03:55.259Z,2.14
2022-12-28T11:06:27.365Z,2.18
2022-12-28T11:09:13.974Z,2.22
2022-12-28T11:11:43.234Z,2.30
2022-12-28T11:14:18.310Z,2.35
2022-12-28T11:16:46.428Z,2.39
2022-12-28T11:19:14.417Z,2.41
2022-12-28T11:21:43.366Z,2.47
2022-12-28T11:24:16.145Z,2.51
2022-12-28T11:26:46.201Z,2.61
2022-12-28T11:29:17.055Z,2.67
2022-12-28T11:31:48.697Z,2.76
2022-12-28T11:34:23.602Z,2.84
2022-12-28T11:36:51.757Z,2.88
2022-12-28T11:39:25.790Z,2.91
2022-12-28T11:42:37.887Z,2.99
2022-12-28T11:44:48.428Z,3.05
2022-12-28T11:47:16.468Z,3.08
2022-12-28T11:49:45.820Z,3.06
2022-12-28T11:52:17.287Z,3.13
2022-12-28T11:54:59.169Z,3.19
2022-12-28T11:57:34.631Z,3.22
2022-12-28T12:00:23.178Z,3.24
2022-12-28T12:03:03.789Z,3.27
2022-12-28T12:05:35.816Z,3.31
2022-12-28T12:08:17.175Z,3.34
2022-12-28T12:10:49.011Z,3.39
2022-12-28T12:13:26.045Z,3.42
2022-12-28T12:16:00.924Z,3.41
2022-12-28T12:18:30.664Z,3.45
2022-12-28T12:21:02.291Z,3.48
2022-12-28T12:23:33.393Z,3.50
2022-12-28T12:26:11.169Z,3.51
2022-12-28T12:28:50.504Z,3.57
2022-12-28T12:31:27.711Z,3.58
2022-12-28T12:33:58.451Z,3.50
2022-12-28T12:36:27.313Z,3.50
2022-12-28T12:38:59.604Z,3.48
2022-12-28T12:41:33.473Z,3.49
2022-12-28T12:44:21.652Z,3.50
2022-12-28T12:46:50.396Z,3.52
2022-12-28T12:49:30.859Z,3.61
2022-12-28T12:52:06.451Z,3.66
2022-12-28T12:54:53.345Z,3.69
2022-12-28T12:57:36.381Z,3.73
2022-12-28T13:00:19.045Z,3.74
2022-12-28T13:03:05.407Z,3.75
2022-12-28T13:05:36.587Z,3.69
2022-12-28T13:08:04.975Z,3.69
2022-12-28T13:10:35.859Z,3.61
2022-12-28T13:13:05.087Z,3.60
2022-12-28T13:15:33.201Z,3.61
2022-12-28T13:18:26.185Z,3.60
2022-12-28T13:20:59.983Z,3.60
2022-12-28T13:23:29.790Z,3.60
2022-12-28T13:26:01.151Z,3.61
2022-12-28T13:28:34.591Z,3.59
2022-12-28T13:31:31.886Z,3.61
2022-12-28T13:34:04.367Z,3.57
2022-12-28T13:36:32.489Z,3.56
2022-12-28T13:39:26.667Z,3.53
2022-12-28T13:41:57.387Z,3.47
2022-12-28T13:44:29.699Z,3.42
2022-12-28T13:47:18.223Z,3.39
2022-12-28T13:49:51.289Z,3.35
2022-12-28T13:52:23.243Z,3.31
2022-12-28T13:54:55.805Z,3.27
2022-12-28T14:00:21.649Z,3.25
2022-12-28T14:02:50.877Z,3.21
2022-12-28T14:05:21.541Z,3.18
2022-12-28T14:07:50.668Z,3.17
2022-12-28T14:10:20.498Z,3.16
2022-12-28T14:12:49.300Z,3.14
2022-12-28T14:15:18.324Z,3.14
2022-12-28T14:17:47.278Z,3.12
2022-12-28T14:20:16.550Z,3.09
2022-12-28T14:22:45.379Z,3.08
2022-12-28T14:25:22.382Z,3.01
2022-12-28T14:28:01.119Z,2.94
2022-12-28T14:30:37.514Z,2.88
2022-12-28T14:33:24.653Z,2.83
2022-12-28T14:36:00.599Z,2.75
2022-12-28T14:38:48.822Z,2.67
2022-12-28T14:41:18.636Z,2.62
2022-12-28T14:43:53.362Z,2.52
2022-12-28T14:46:28.059Z,2.43
2022-12-28T14:48:56.040Z,2.36
2022-12-28T14:51:29.406Z,2.27
2022-12-28T14:54:28.233Z,2.22
2022-12-28T14:57:01.639Z,2.19
2022-12-28T14:59:34.024Z,2.12
2022-12-28T15:02:05.032Z,2.04
2022-12-28T15:04:41.591Z,1.96
2022-12-28T15:07:12.279Z,1.89
2022-12-28T15:09:41.551Z,1.89
2022-12-28T15:12:17.683Z,1.91
2022-12-28T15:14:45.988Z,1.87
2022-12-28T15:17:14.186Z,1.81
2022-12-28T15:19:43.657Z,1.76
2022-12-28T15:22:12.938Z,1.71
2022-12-28T15:24:45.499Z,1.68
2022-12-28T15:27:13.620Z,1.65
2022-12-28T15:30:05.613Z,1.62
2022-12-28T15:32:30.521Z,1.58
2022-12-28T15:34:58.667Z,1.55
2022-12-28T15:37:27.181Z,1.51
2022-12-28T15:39:55.560Z,1.47
2022-12-28T15:42:26.029Z,1.46
2022-12-28T15:44:54.553Z,1.45
2022-12-28T15:47:24.177Z,1.41
2022-12-28T15:49:52.216Z,1.33
2022-12-28T15:52:20.525Z,1.29
2022-12-28T15:54:48.672Z,1.23
2022-12-28T15:57:16.746Z,1.20
2022-12-28T15:59:44.609Z,1.12
2022-12-28T16:02:13.494Z,1.05
2022-12-28T16:04:42.476Z,1.01
2022-12-28T16:07:10.433Z,0.95
2022-12-28T16:09:38.436Z,0.89
2022-12-28T16:12:06.430Z,0.82
2022-12-28T16:14:34.323Z,0.76
2022-12-28T16:17:03.647Z,0.68
2022-12-28T16:19:31.521Z,0.61
2022-12-28T16:21:59.433Z,0.58
2022-12-28T16:24:29.157Z,0.55
2022-12-28T16:26:57.259Z,0.51
2022-12-28T16:29:25.514Z,0.52
2022-12-28T16:31:55.500Z,0.54
2022-12-28T16:34:23.631Z,0.55
2022-12-28T16:36:57.076Z,0.57
2022-12-28T16:39:26.079Z,0.59
2022-12-28T16:41:57.261Z,0.57
2022-12-28T16:44:27.463Z,0.57
2022-12-28T16:46:58.314Z,0.55
2022-12-28T16:49:28.864Z,0.52
2022-12-28T16:51:57.379Z,0.47
2022-12-28T16:54:26.102Z,0.43
2022-12-28T16:56:54.248Z,0.40
2022-12-28T16:59:24.715Z,0.32
2022-12-28T17:01:54.704Z,0.26
2022-12-28T17:04:23.362Z,0.22
2022-12-28T17:06:52.072Z,0.16
2022-12-28T17:09:20.706Z,0.10
2022-12-28T17:11:49.661Z,0.04
2022-12-28T17:14:35.928Z,0.01
2022-12-28T17:17:07.070Z,-0.06
2022-12-28T17:19:35.407Z,-0.10
2022-12-28T17:22:04.215Z,-0.11
2022-12-28T17:24:33.537Z,-0.12
2022-12-28T17:27:07.677Z,-0.14
2022-12-28T17:29:37.902Z,-0.18
2022-12-28T17:32:06.682Z,-0.20
2022-12-28T17:34:35.079Z,-0.24
2022-12-28T17:37:03.636Z,-0.29
2022-12-28T17:39:40.025Z,-0.34
2022-12-28T17:42:11.904Z,-0.37
2022-12-28T17:44:40.023Z,-0.43
2022-12-28T17:47:08.394Z,-0.47
2022-12-28T17:49:36.274Z,-0.52
2022-12-28T17:52:04.421Z,-0.57
2022-12-28T17:54:35.390Z,-0.62
2022-12-28T17:57:03.366Z,-0.63
2022-12-28T17:59:32.665Z,-0.67
2022-12-28T18:02:02.428Z,-0.68
2022-12-28T18:04:30.926Z,-0.72
2022-12-28T18:06:58.886Z,-0.71
2022-12-28T18:09:28.202Z,-0.71
2022-12-28T18:11:56.617Z,-0.70
2022-12-28T18:14:25.311Z,-0.69
2022-12-28T18:16:54.077Z,-0.71
2022-12-28T18:19:22.216Z,-0.71
2022-12-28T18:21:50.710Z,-0.68
2022-12-28T18:24:21.262Z,-0.71
2022-12-28T18:26:49.387Z,-0.72
2022-12-28T18:29:17.693Z,-0.73
2022-12-28T18:31:48.441Z,-0.72
2022-12-28T18:34:16.471Z,-0.75
2022-12-28T18:36:44.819Z,-0.77
2022-12-28T18:39:12.782Z,-0.79
2022-12-28T18:41:40.818Z,-0.79
2022-12-28T18:44:08.997Z,-0.81
2022-12-28T18:46:37.199Z,-0.83
2022-12-28T18:49:05.030Z,-0.85
2022-12-28T18:51:32.883Z,-0.87
2022-12-28T18:54:00.990Z,-0.88
2022-12-28T18:56:29.642Z,-0.93
2022-12-28T18:59:00.783Z,-0.89
2022-12-28T19:04:17.306Z,-0.87
2022-12-28T19:06:46.704Z,-0.88
2022-12-28T19:09:14.584Z,-0.92
2022-12-28T19:11:42.451Z,-0.93
2022-12-28T19:14:11.460Z,-0.94
2022-12-28T19:16:40.475Z,-0.95
2022-12-28T19:19:08.479Z,-1.00
2022-12-28T19:21:41.085Z,-1.05
2022-12-28T19:24:17.163Z,-1.10
2022-12-28T19:26:45.974Z,-1.15
2022-12-28T19:29:15.568Z,-1.20
2022-12-28T19:31:44.278Z,-1.27
2022-12-28T19:34:12.253Z,-1.30
2022-12-28T19:36:40.131Z,-1.33
2022-12-28T19:39:08.340Z,-1.37
2022-12-28T19:41:36.426Z,-1.40
2022-12-28T19:44:04.641Z,-1.42
2022-12-28T19:46:33.014Z,-1.44
2022-12-28T19:49:02.142Z,-1.47
2022-12-28T19:51:32.175Z,-1.52
2022-12-28T19:54:01.181Z,-1.54
2022-12-28T19:56:29.087Z,-1.57
2022-12-28T19:59:04.925Z,-1.58
2022-12-28T20:01:34.901Z,-1.59
2022-12-28T20:04:08.783Z,-1.62
2022-12-28T20:06:41.771Z,-1.64
2022-12-28T20:09:11.331Z,-1.64
2022-12-28T20:11:40.846Z,-1.66
2022-12-28T20:14:11.073Z,-1.64
2022-12-28T20:16:38.968Z,-1.63
2022-12-28T20:19:08.772Z,-1.63
2022-12-28T20:21:38.033Z,-1.63
2022-12-28T20:24:06.532Z,-1.62
2022-12-28T20:26:34.473Z,-1.65
2022-12-28T20:29:03.518Z,-1.67
2022-12-28T20:31:31.865Z,-1.67
2022-12-28T20:33:59.951Z,-1.67
2022-12-28T20:36:28.837Z,-1.66
2022-12-28T20:38:57.038Z,-1.64
2022-12-28T20:41:44.788Z,-1.65
2022-12-28T20:44:13.962Z,-1.68
2022-12-28T20:46:43.062Z,-1.73
2022-12-28T20:49:10.993Z,-1.76
2022-12-28T20:51:38.957Z,-1.78
2022-12-28T20:54:06.810Z,-1.81
2022-12-28T20:56:38.302Z,-1.84
2022-12-28T20:59:06.292Z,-1.86
2022-12-28T21:01:36.092Z,-1.88
2022-12-28T21:04:05.339Z,-1.85
2022-12-28T21:06:33.220Z,-1.85
2022-12-28T21:09:01.937Z,-1.85
2022-12-28T21:11:31.855Z,-1.88
2022-12-28T21:14:00.297Z,-1.91
2022-12-28T21:16:28.272Z,-1.96
2022-12-28T21:18:56.134Z,-1.98
2022-12-28T21:21:23.992Z,-2.01
2022-12-28T21:23:55.039Z,-2.04
2022-12-28T21:26:22.947Z,-2.06
2022-12-28T21:28:50.865Z,-2.08
2022-12-28T21:31:18.700Z,-2.12
2022-12-28T21:33:46.610Z,-2.14
2022-12-28T21:36:15.858Z,-2.15
2022-12-28T21:38:44.579Z,-2.16
2022-12-28T21:41:14.451Z,-2.16
2022-12-28T21:43:42.641Z,-2.18
2022-12-28T21:46:14.574Z,-2.19
2022-12-28T21:48:42.641Z,-2.22
2022-12-28T21:51:35.207Z,-2.25
2022-12-28T21:54:15.615Z,-2.27
2022-12-28T21:56:44.593Z,-2.29
2022-12-28T21:59:12.977Z,-2.30
2022-12-28T22:01:59.922Z,-2.32
2022-12-28T22:04:47.023Z,-2.34
2022-12-28T22:07:16.104Z,-2.38
2022-12-28T22:10:02.910Z,-2.40
2022-12-28T22:12:37.403Z,-2.43
2022-12-28T22:15:34.813Z,-2.46
2022-12-28T22:18:53.187Z,-2.50
2022-12-28T22:21:12.077Z,-2.53
2022-12-28T22:23:40.103Z,-2.56
2022-12-28T22:26:08.096Z,-2.57
2022-12-28T22:28:38.200Z,-2.59
2022-12-28T22:31:06.662Z,-2.62
2022-12-28T22:33:34.640Z,-2.65
2022-12-28T22:36:09.389Z,-2.68
2022-12-28T22:38:38.372Z,-2.71
2022-12-28T22:41:06.489Z,-2.74
2022-12-28T22:43:34.409Z,-2.76
2022-12-28T22:46:06.950Z,-2.77
2022-12-28T22:48:34.995Z,-2.78
2022-12-28T22:51:07.412Z,-2.79
2022-12-28T22:53:36.657Z,-2.80
2022-12-28T22:56:10.041Z,-2.82
2022-12-28T22:58:38.114Z,-2.84
2022-12-28T23:01:07.342Z,-2.86
2022-12-28T23:03:39.286Z,-2.87
2022-12-28T23:06:08.689Z,-2.88
2022-12-28T23:08:39.726Z,-2.89
2022-12-28T23:11:30.570Z,-2.89
2022-12-28T23:14:22.186Z,-2.91
2022-12-28T23:16:51.817Z,-2.92
2022-12-28T23:19:39.228Z,-2.95
2022-12-28T23:22:26.288Z,-2.97
2022-12-28T23:25:13.383Z,-2.99
2022-12-28T23:27:43.876Z,-3.00
2022-12-28T23:30:17.507Z,-3.02
2022-12-28T23:32:49.039Z,-3.02
2022-12-28T23:35:18.196Z,-3.04
2022-12-28T23:37:46.610Z,-3.05
2022-12-28T23:40:16.608Z,-3.07
2022-12-28T23:42:44.566Z,-3.07
2022-12-28T23:45:13.758Z,-3.08
2022-12-28T23:47:42.563Z,-3.08
2022-12-28T23:50:10.901Z,-3.10
2022-12-28T23:52:40.050Z,-3.11
2022-12-28T23:55:08.435Z,-3.11
2022-12-28T23:57:36.289Z,-3.11
